»·PEaware :: N1980E KSNA-KSNA

N1980E :: KSNA-KSNA

FLIGHT INFORMATION

Flight Status: Arrived
Operator: Privately registered:
United States
More flights under this callsign
Pilot: Max M. (20768)
Aircraft: Unknown
(LEGA)
More flights by this aircraft type
Origin: KSNA John Wayne-Orange Co
United States
Destination: KSNA John Wayne-Orange Co
United States
More flights between these airports :: More routes between these airports
Route: +SLI
File this flight plan on PilotEdge
Remarks:
Altitude:
(Current/Filed)
300ft
Speed:
(Current/Filed)
300kts
Departed: 30-May-19 08:11 PM
Arrived: 30-May-19 08:40 PM
Distance/Time
Traveled:
0nm/0:29
Distance/Time
To Go:
Arrived

Flight Plot

Page will automatically refresh every two minutes.


Map Options




Map Legend


Flown Route
Filed Route
Departure Airport
Arrival Airport
Navaid (VOR, NDB)
Fix

Horizontal Profiles

Position Reports

Time Latitude Longitude Heading Altitude Ground
Speed
30-May-19 19:52 33.670017 -117.874589 24 63ft 0kts
30-May-19 19:53 33.670017 -117.874589 24 63ft 0kts
30-May-19 19:53 33.670017 -117.874589 24 63ft 0kts
30-May-19 19:54 33.670017 -117.874589 24 63ft 0kts
30-May-19 19:56 33.670017 -117.874589 24 63ft 0kts
30-May-19 19:56 33.670017 -117.874589 24 63ft 0kts
30-May-19 19:57 33.670017 -117.874589 24 63ft 0kts
30-May-19 19:59 33.670017 -117.874589 24 63ft 0kts
30-May-19 19:59 33.670017 -117.874589 24 63ft 0kts
30-May-19 20:00 33.670017 -117.874589 24 63ft 0kts
30-May-19 20:01 33.670017 -117.874589 24 63ft 0kts
30-May-19 20:02 33.670017 -117.874589 24 63ft 0kts
30-May-19 20:03 33.671509 -117.872946 27 63ft 14kts
30-May-19 20:04 33.676677 -117.869665 28 63ft 23kts
30-May-19 20:05 33.681097 -117.866736 72 63ft 0kts
30-May-19 20:06 33.681097 -117.866736 72 63ft 0kts
30-May-19 20:07 33.681097 -117.866736 72 63ft 0kts
30-May-19 20:08 33.681097 -117.866736 72 63ft 0kts
30-May-19 20:09 33.681097 -117.866736 72 63ft 0kts
30-May-19 20:10 33.673516 -117.870063 207 63ft 126kts
30-May-19 20:11 33.627031 -117.886084 186 1153ft 209kts
30-May-19 20:12 33.560064 -117.895181 186 1864ft 269kts
30-May-19 20:13 33.481680 -117.905856 186 3694ft 295kts
30-May-19 20:14 33.396941 -117.917452 186 5008ft 325kts
30-May-19 20:15 33.306695 -117.929787 186 4989ft 326kts
30-May-19 20:16 33.217118 -117.941912 186 4961ft 319kts
30-May-19 20:17 33.150609 -117.980360 263 4956ft 262kts
30-May-19 20:18 33.199568 -118.022088 351 4961ft 240kts
30-May-19 20:19 33.265911 -118.032737 351 4964ft 242kts
30-May-19 20:20 33.333341 -118.043611 351 4964ft 246kts
30-May-19 20:21 33.401476 -118.054675 351 4963ft 249kts
30-May-19 20:22 33.471560 -118.065992 351 4965ft 258kts
30-May-19 20:23 33.543488 -118.077690 351 4963ft 260kts
30-May-19 20:24 33.615741 -118.089405 355 4961ft 261kts
30-May-19 20:25 33.679413 -118.050735 31 4961ft 257kts
30-May-19 20:26 33.740458 -118.005736 31 4962ft 253kts
30-May-19 20:27 33.800852 -117.961227 31 4963ft 250kts
30-May-19 20:28 33.859968 -117.917679 31 4963ft 248kts
30-May-19 20:29 33.918891 -117.874252 31 4963ft 247kts
30-May-19 20:30 33.960785 -117.825446 108 4977ft 185kts
30-May-19 20:31 33.940571 -117.765557 113 4968ft 198kts
30-May-19 20:32 33.901914 -117.730060 181 4729ft 208kts
30-May-19 20:33 33.856026 -117.752308 212 2973ft 157kts
30-May-19 20:34 33.821897 -117.775861 208 2989ft 140kts
30-May-19 20:35 33.785744 -117.798990 207 2347ft 151kts
30-May-19 20:36 33.748009 -117.822974 207 1549ft 147kts
30-May-19 20:37 33.716840 -117.842760 207 846ft 114kts
30-May-19 20:38 33.685984 -117.862518 209 201ft 140kts
30-May-19 20:39 33.670079 -117.873262 271 63ft 0kts
30-May-19 20:40 33.670422 -117.874255 295 63ft 0kts
30-May-19 20:41 33.670422 -117.874255 295 63ft 0kts

Navigation Log

Ident Type
Flight plan parsing failed, navigation log unavailable